createdAt,value
2019-01-31T00:14:19.431Z,0.58
2019-01-31T00:17:03.455Z,0.62
2019-01-31T00:19:35.129Z,0.55
2019-01-31T00:22:13.338Z,0.52
2019-01-31T00:33:27.359Z,0.41
2019-01-31T00:36:05.015Z,0.72
2019-01-31T00:38:39.409Z,0.64
2019-01-31T00:43:46.832Z,0.61
2019-01-31T00:46:28.009Z,0.56
2019-01-31T00:49:15.209Z,0.54
2019-01-31T00:51:46.538Z,0.72
2019-01-31T00:54:27.314Z,0.60
2019-01-31T00:56:58.694Z,0.57
2019-01-31T01:02:21.055Z,0.56
2019-01-31T01:07:49.552Z,0.52
2019-01-31T01:10:33.235Z,0.48
2019-01-31T01:13:04.918Z,0.44
2019-01-31T01:15:36.277Z,0.52
2019-01-31T01:18:23.455Z,0.46
2019-01-31T01:21:04.524Z,0.40
2019-01-31T01:23:45.176Z,0.31
2019-01-31T01:26:29.241Z,0.32
2019-01-31T01:29:20.280Z,0.33
2019-01-31T01:34:46.222Z,0.19
2019-01-31T01:37:27.389Z,0.18
2019-01-31T01:42:55.948Z,0.30
2019-01-31T01:45:48.721Z,0.31
2019-01-31T01:48:29.356Z,0.39
2019-01-31T01:51:07.305Z,0.26
2019-01-31T01:53:45.255Z,0.23
2019-01-31T01:59:05.103Z,0.22
2019-01-31T02:04:24.787Z,0.40
2019-01-31T02:06:59.602Z,0.36
2019-01-31T02:15:25.470Z,0.32
2019-01-31T02:20:48.236Z,0.17
2019-01-31T02:23:20.043Z,0.10
2019-01-31T02:25:58.022Z,0.07
2019-01-31T02:31:30.179Z,0.01
2019-01-31T02:39:46.815Z,0.00
2019-01-31T02:42:18.205Z,-0.01
2019-01-31T02:45:14.228Z,0.07
2019-01-31T02:50:39.240Z,0.08
2019-01-31T03:01:49.158Z,0.46
2019-01-31T03:04:23.968Z,0.39
2019-01-31T03:07:11.146Z,0.30
2019-01-31T03:09:54.640Z,0.23
2019-01-31T03:12:14.405Z,0.41
2019-01-31T03:14:42.972Z,0.51
2019-01-31T03:17:30.053Z,0.38
2019-01-31T03:20:14.101Z,0.46
2019-01-31T03:22:42.743Z,0.32
2019-01-31T03:28:17.158Z,0.26
2019-01-31T03:31:07.170Z,0.32
2019-01-31T03:33:38.926Z,0.20
2019-01-31T03:39:19.970Z,0.17
2019-01-31T03:41:51.342Z,0.06
2019-01-31T03:53:00.957Z,-0.08
2019-01-31T03:55:36.019Z,-0.15
2019-01-31T04:00:52.229Z,-0.24
2019-01-31T04:03:20.873Z,-0.33
2019-01-31T04:05:49.512Z,-0.40
2019-01-31T04:08:18.480Z,-0.42
2019-01-31T04:10:47.108Z,-0.40
2019-01-31T04:13:15.747Z,-0.37
2019-01-31T04:15:44.375Z,-0.39
2019-01-31T04:18:13.314Z,-0.37
2019-01-31T04:20:41.935Z,-0.37
2019-01-31T04:23:10.556Z,-0.39
2019-01-31T04:25:39.464Z,-0.49
2019-01-31T04:28:08.079Z,-0.42
2019-01-31T04:30:36.703Z,-0.41
2019-01-31T04:33:05.565Z,-0.60
2019-01-31T04:35:34.190Z,-0.67
2019-01-31T04:38:02.822Z,-0.74
2019-01-31T04:40:31.895Z,-0.76
2019-01-31T04:43:00.410Z,-0.78
2019-01-31T04:45:29.018Z,-0.83
2019-01-31T04:47:57.936Z,-0.83
2019-01-31T04:50:26.945Z,-0.77
2019-01-31T04:52:55.575Z,-0.88
2019-01-31T04:55:24.497Z,-0.90
2019-01-31T04:57:53.384Z,-0.97
2019-01-31T05:00:22.002Z,-0.92
2019-01-31T05:02:50.611Z,-0.99
2019-01-31T05:05:19.565Z,-0.95
2019-01-31T05:07:48.198Z,-0.92
2019-01-31T05:10:16.860Z,-1.04
2019-01-31T05:12:45.797Z,-1.07
2019-01-31T05:15:14.440Z,-1.14
2019-01-31T05:17:43.361Z,-1.22
2019-01-31T05:20:12.367Z,-1.20
2019-01-31T05:22:41.346Z,-1.29
2019-01-31T05:25:09.980Z,-1.35
2019-01-31T05:27:38.590Z,-1.41
2019-01-31T05:32:46.178Z,-1.36
2019-01-31T05:35:14.793Z,-1.45
2019-01-31T05:37:43.405Z,-1.47
2019-01-31T05:40:12.037Z,-1.48
2019-01-31T05:42:40.953Z,-1.53
2019-01-31T05:45:09.588Z,-1.51
2019-01-31T05:47:38.252Z,-1.54
2019-01-31T05:52:45.547Z,-1.64
2019-01-31T05:55:14.181Z,-1.58
2019-01-31T05:57:42.815Z,-1.58
2019-01-31T06:05:32.184Z,-1.83
2019-01-31T06:08:00.814Z,-1.86
2019-01-31T06:10:29.756Z,-1.78
2019-01-31T06:12:58.380Z,-1.73
2019-01-31T06:15:27.102Z,-1.72
2019-01-31T06:17:55.745Z,-1.67
2019-01-31T06:20:24.368Z,-1.87
2019-01-31T06:22:53.288Z,-1.78
2019-01-31T06:25:22.120Z,-1.78
2019-01-31T06:27:50.627Z,-1.85
2019-01-31T06:30:19.539Z,-1.91
2019-01-31T06:32:48.153Z,-1.88
2019-01-31T06:35:17.134Z,-1.92
2019-01-31T06:37:47.201Z,-2.06
2019-01-31T06:40:15.846Z,-2.03
2019-01-31T06:42:44.797Z,-1.98
2019-01-31T06:45:16.452Z,-2.09
2019-01-31T06:47:45.110Z,-2.04
2019-01-31T06:50:13.776Z,-2.08
2019-01-31T06:52:42.434Z,-2.09
2019-01-31T06:55:11.071Z,-2.02
2019-01-31T06:57:39.706Z,-2.05
2019-01-31T07:02:49.414Z,-2.19
2019-01-31T07:05:18.016Z,-2.23
2019-01-31T07:07:47.005Z,-2.22
2019-01-31T07:12:57.264Z,-2.11
2019-01-31T07:15:25.916Z,-2.08
2019-01-31T07:17:54.523Z,-2.07
2019-01-31T07:20:23.130Z,-2.08
2019-01-31T07:22:51.764Z,-2.07
2019-01-31T07:25:20.658Z,-2.14
2019-01-31T07:27:49.293Z,-2.19
2019-01-31T07:30:21.228Z,-2.13
2019-01-31T07:32:49.853Z,-2.12
2019-01-31T07:35:18.495Z,-2.08
2019-01-31T07:37:47.110Z,-2.09
2019-01-31T07:40:21.834Z,-2.09
2019-01-31T07:42:50.443Z,-2.12
2019-01-31T07:45:22.643Z,-2.04
2019-01-31T07:47:51.268Z,-2.11
2019-01-31T07:50:19.887Z,-2.08
2019-01-31T07:52:48.534Z,-2.04
2019-01-31T07:55:17.135Z,-2.01
2019-01-31T07:57:45.733Z,-1.95
2019-01-31T08:00:20.687Z,-1.92
2019-01-31T08:02:49.681Z,-1.91
2019-01-31T08:05:18.333Z,-1.84
2019-01-31T08:07:46.955Z,-1.78
2019-01-31T08:10:18.308Z,-1.80
2019-01-31T08:12:46.911Z,-1.72
2019-01-31T08:15:18.547Z,-1.70
2019-01-31T08:17:47.160Z,-1.59
2019-01-31T08:20:15.870Z,-1.50
2019-01-31T08:22:44.507Z,-1.34
2019-01-31T08:25:13.569Z,-1.16
2019-01-31T08:27:42.191Z,-1.17
2019-01-31T08:30:22.690Z,-1.14
2019-01-31T08:32:51.309Z,-1.10
2019-01-31T08:35:20.286Z,-1.01
2019-01-31T08:37:48.901Z,-0.92
2019-01-31T08:40:17.861Z,-0.84
2019-01-31T08:42:46.501Z,-0.75
2019-01-31T08:45:15.429Z,-0.68
2019-01-31T08:47:44.052Z,-0.61
2019-01-31T08:50:15.703Z,-0.51
2019-01-31T08:52:44.313Z,-0.34
2019-01-31T08:55:12.929Z,-0.32
2019-01-31T08:57:41.557Z,-0.27
2019-01-31T09:00:13.471Z,-0.12
2019-01-31T09:02:42.071Z,0.03
2019-01-31T09:05:11.043Z,0.13
2019-01-31T09:07:39.640Z,0.26
2019-01-31T09:10:08.288Z,0.33
2019-01-31T09:12:36.894Z,0.39
2019-01-31T09:15:05.550Z,0.45
2019-01-31T09:17:34.462Z,0.55
2019-01-31T09:20:03.451Z,0.58
2019-01-31T09:22:32.074Z,0.66
2019-01-31T09:25:22.782Z,0.70
2019-01-31T09:31:06.366Z,0.86
2019-01-31T09:33:59.974Z,0.89
2019-01-31T09:36:59.477Z,0.97
2019-01-31T09:44:53.877Z,1.26
2019-01-31T09:47:28.253Z,1.35
2019-01-31T09:52:47.117Z,1.42
2019-01-31T09:55:34.284Z,1.50
2019-01-31T09:58:08.835Z,1.59
2019-01-31T10:00:40.747Z,1.60
2019-01-31T10:03:22.176Z,1.64
2019-01-31T10:05:59.883Z,1.74
2019-01-31T10:08:47.224Z,1.87
2019-01-31T10:11:44.160Z,1.99
2019-01-31T10:14:40.134Z,1.99
2019-01-31T10:17:30.155Z,1.98
2019-01-31T10:20:04.871Z,2.06
2019-01-31T10:22:42.438Z,1.98
2019-01-31T10:25:26.476Z,2.08
2019-01-31T10:30:52.209Z,2.11
2019-01-31T10:33:27.166Z,2.18
2019-01-31T10:36:01.744Z,2.31
2019-01-31T10:38:40.069Z,2.35
2019-01-31T10:41:30.872Z,2.26
2019-01-31T10:44:37.371Z,2.39
2019-01-31T10:50:18.023Z,2.52
2019-01-31T10:53:17.593Z,2.46
2019-01-31T10:56:13.725Z,2.45
2019-01-31T10:59:06.811Z,2.51
2019-01-31T11:04:48.213Z,2.59
2019-01-31T11:07:38.485Z,2.67
2019-01-31T11:10:29.111Z,2.55
2019-01-31T11:13:09.856Z,2.64
2019-01-31T11:16:03.284Z,2.68
2019-01-31T11:21:29.166Z,2.69
2019-01-31T11:27:04.340Z,2.69
2019-01-31T11:30:07.597Z,2.75
2019-01-31T11:32:38.549Z,2.78
2019-01-31T11:35:23.176Z,2.80
2019-01-31T11:40:47.410Z,2.84
2019-01-31T11:43:37.203Z,2.83
2019-01-31T11:48:46.672Z,2.90
2019-01-31T11:51:53.018Z,2.83
2019-01-31T12:00:15.043Z,2.86
2019-01-31T12:02:54.522Z,2.77
2019-01-31T12:05:12.280Z,2.78
2019-01-31T12:07:41.222Z,2.87
2019-01-31T12:10:10.211Z,2.96
2019-01-31T12:12:38.820Z,2.89
2019-01-31T12:15:07.811Z,2.88
2019-01-31T12:17:36.775Z,2.86
2019-01-31T12:20:05.695Z,2.85
2019-01-31T12:22:34.653Z,2.79
2019-01-31T12:25:03.646Z,2.91
2019-01-31T12:27:32.245Z,3.00
2019-01-31T12:30:01.219Z,2.97
2019-01-31T12:32:29.812Z,2.98
2019-01-31T12:34:58.447Z,2.99
2019-01-31T12:37:27.064Z,2.95
2019-01-31T12:39:55.666Z,2.95
2019-01-31T12:42:24.636Z,2.95
2019-01-31T12:44:53.228Z,3.05
2019-01-31T12:47:22.057Z,2.98
2019-01-31T12:49:50.664Z,3.05
2019-01-31T12:52:19.301Z,2.97
2019-01-31T12:54:47.901Z,3.11
2019-01-31T12:57:16.843Z,3.03
2019-01-31T12:59:45.465Z,3.17
2019-01-31T13:02:14.086Z,3.14
2019-01-31T13:04:42.693Z,3.16
2019-01-31T13:07:11.341Z,3.08
2019-01-31T13:09:39.963Z,3.13
2019-01-31T13:12:08.618Z,3.12
2019-01-31T13:14:37.237Z,3.17
2019-01-31T13:17:06.210Z,3.11
2019-01-31T13:19:34.857Z,3.06
2019-01-31T13:22:03.480Z,3.09
2019-01-31T13:24:32.101Z,3.08
2019-01-31T13:27:01.072Z,3.09
2019-01-31T13:29:29.683Z,3.05
2019-01-31T13:31:58.421Z,2.97
2019-01-31T13:34:26.896Z,2.92
2019-01-31T13:36:55.888Z,2.87
2019-01-31T13:39:24.509Z,2.85
2019-01-31T13:41:53.128Z,2.93
2019-01-31T13:44:22.038Z,3.00
2019-01-31T13:46:50.693Z,2.86
2019-01-31T13:49:19.343Z,2.83
2019-01-31T13:51:47.965Z,2.79
2019-01-31T13:54:16.570Z,2.77
2019-01-31T13:56:46.146Z,2.65
2019-01-31T13:59:14.185Z,2.58
2019-01-31T14:01:42.814Z,2.60
2019-01-31T14:04:11.440Z,2.59
2019-01-31T14:06:40.075Z,2.59
2019-01-31T14:09:08.704Z,2.64
2019-01-31T14:11:37.332Z,2.65
2019-01-31T14:14:09.184Z,2.61
2019-01-31T14:16:34.608Z,2.63
2019-01-31T14:19:03.228Z,2.65
2019-01-31T14:21:31.841Z,2.66
2019-01-31T14:24:00.548Z,2.60
2019-01-31T14:26:29.459Z,2.53
2019-01-31T14:28:58.082Z,2.45
2019-01-31T14:31:26.705Z,2.50
2019-01-31T14:33:55.311Z,2.49
2019-01-31T14:36:24.323Z,2.38
2019-01-31T14:38:52.930Z,2.42
2019-01-31T14:41:21.554Z,2.27
2019-01-31T14:43:50.175Z,2.24
2019-01-31T14:46:18.805Z,2.24
2019-01-31T14:48:47.417Z,2.19
2019-01-31T14:51:16.408Z,2.10
2019-01-31T14:53:45.289Z,2.08
2019-01-31T14:56:13.935Z,2.05
2019-01-31T14:58:42.547Z,2.00
2019-01-31T15:01:11.180Z,1.99
2019-01-31T15:03:39.787Z,1.91
2019-01-31T15:06:08.392Z,1.85
2019-01-31T15:08:37.287Z,1.73
2019-01-31T15:11:06.179Z,1.81
2019-01-31T15:13:34.801Z,1.70
2019-01-31T15:16:03.424Z,1.66
2019-01-31T15:18:32.038Z,1.63
2019-01-31T15:21:00.943Z,1.51
2019-01-31T15:23:29.585Z,1.45
2019-01-31T15:25:58.200Z,1.34
2019-01-31T15:28:26.808Z,1.30
2019-01-31T15:30:55.754Z,1.20
2019-01-31T15:33:24.414Z,1.09
2019-01-31T15:35:53.023Z,0.97
2019-01-31T15:38:21.666Z,0.89
2019-01-31T15:40:50.272Z,0.80
2019-01-31T15:43:18.885Z,0.69
2019-01-31T15:45:47.509Z,0.58
2019-01-31T15:48:16.224Z,0.48
2019-01-31T15:50:44.930Z,0.45
2019-01-31T15:53:13.560Z,0.48
2019-01-31T15:55:42.182Z,0.47
2019-01-31T15:58:10.810Z,0.55
2019-01-31T16:00:42.759Z,0.41
2019-01-31T16:03:11.318Z,0.33
2019-01-31T16:05:39.942Z,0.29
2019-01-31T16:08:08.881Z,0.27
2019-01-31T16:10:37.509Z,0.29
2019-01-31T16:13:06.190Z,0.35
2019-01-31T16:15:34.797Z,0.31
2019-01-31T16:18:03.437Z,0.22
2019-01-31T16:20:32.062Z,0.22
2019-01-31T16:23:00.716Z,0.21
2019-01-31T16:25:29.333Z,0.17
2019-01-31T16:27:58.248Z,0.33
2019-01-31T16:30:26.862Z,0.27
2019-01-31T16:32:55.821Z,0.19
2019-01-31T16:35:24.457Z,0.10
2019-01-31T16:40:32.319Z,0.12
2019-01-31T16:43:00.950Z,0.18
2019-01-31T16:45:29.567Z,0.27
2019-01-31T16:47:58.201Z,0.25
2019-01-31T16:50:26.814Z,0.28
2019-01-31T16:52:55.440Z,0.26
2019-01-31T16:55:24.080Z,0.28
2019-01-31T16:57:52.999Z,0.40
2019-01-31T17:00:21.640Z,0.50
2019-01-31T17:02:50.300Z,0.35
2019-01-31T17:05:18.923Z,0.29
2019-01-31T17:07:47.945Z,0.28
2019-01-31T17:10:16.831Z,0.27
2019-01-31T17:12:45.456Z,0.23
2019-01-31T17:15:18.160Z,0.29
2019-01-31T17:17:43.383Z,0.26
2019-01-31T17:20:14.732Z,0.20
2019-01-31T17:22:43.357Z,0.23
2019-01-31T17:25:11.985Z,0.24
2019-01-31T17:27:40.891Z,0.13
2019-01-31T17:30:12.756Z,0.12
2019-01-31T17:32:41.653Z,0.08
2019-01-31T17:35:10.630Z,0.12
2019-01-31T17:37:39.622Z,-0.02
2019-01-31T17:40:11.330Z,-0.02
2019-01-31T17:42:40.576Z,0.07
2019-01-31T17:45:09.221Z,0.03
2019-01-31T17:47:37.849Z,0.05
2019-01-31T17:50:06.584Z,-0.07
2019-01-31T17:52:35.193Z,-0.06
2019-01-31T17:55:03.841Z,-0.04
2019-01-31T17:57:32.447Z,0.05
2019-01-31T18:00:01.081Z,0.00
2019-01-31T18:02:30.520Z,-0.07
2019-01-31T18:04:59.448Z,-0.09
2019-01-31T18:07:28.331Z,-0.10
2019-01-31T18:09:56.972Z,0.00
2019-01-31T18:12:25.586Z,0.02
2019-01-31T18:14:54.219Z,-0.04
2019-01-31T18:17:22.852Z,-0.07
2019-01-31T18:19:51.485Z,-0.15
2019-01-31T18:22:20.107Z,-0.15
2019-01-31T18:24:49.020Z,-0.21
2019-01-31T18:27:17.699Z,-0.14
2019-01-31T18:29:46.339Z,-0.24
2019-01-31T18:32:14.956Z,-0.19
2019-01-31T18:34:43.579Z,-0.30
2019-01-31T18:37:12.193Z,-0.43
2019-01-31T18:39:40.824Z,-0.43
2019-01-31T18:42:09.706Z,-0.43
2019-01-31T18:44:38.693Z,-0.39
2019-01-31T18:47:07.583Z,-0.39
2019-01-31T18:49:36.275Z,-0.35
2019-01-31T18:52:04.891Z,-0.34
2019-01-31T18:54:33.509Z,-0.35
2019-01-31T18:57:02.418Z,-0.37
2019-01-31T18:59:31.573Z,-0.37
2019-01-31T19:02:00.039Z,-0.37
2019-01-31T19:04:28.982Z,-0.39
2019-01-31T19:06:57.608Z,-0.49
2019-01-31T19:09:26.228Z,-0.65
2019-01-31T19:11:56.036Z,-0.75
2019-01-31T19:14:24.951Z,-0.75
2019-01-31T19:16:53.606Z,-0.85
2019-01-31T19:19:22.525Z,-0.86
2019-01-31T19:21:51.135Z,-0.82
2019-01-31T19:24:20.092Z,-0.84
2019-01-31T19:26:48.714Z,-0.80
2019-01-31T19:29:17.338Z,-0.81
2019-01-31T19:31:45.954Z,-0.94
2019-01-31T19:34:14.932Z,-0.84
2019-01-31T19:36:43.571Z,-0.87
2019-01-31T19:39:12.183Z,-1.00
2019-01-31T19:41:42.551Z,-1.02
2019-01-31T19:44:09.999Z,-1.04
2019-01-31T19:46:38.654Z,-1.08
2019-01-31T19:49:07.573Z,-1.11
2019-01-31T19:51:36.215Z,-1.06
2019-01-31T19:54:04.814Z,-1.12
2019-01-31T19:56:35.824Z,-1.09
2019-01-31T19:59:02.409Z,-1.20
2019-01-31T20:01:31.374Z,-1.21
2019-01-31T20:03:59.999Z,-1.11
2019-01-31T20:06:28.641Z,-1.05
2019-01-31T20:08:57.242Z,-1.15
2019-01-31T20:11:25.876Z,-1.17
2019-01-31T20:13:54.473Z,-1.22
2019-01-31T20:16:29.092Z,-1.28
2019-01-31T20:18:51.730Z,-1.42
2019-01-31T20:21:20.349Z,-1.39
2019-01-31T20:23:49.330Z,-1.41
2019-01-31T20:26:18.346Z,-1.29
2019-01-31T20:28:46.944Z,-1.28
2019-01-31T20:31:15.601Z,-1.28
2019-01-31T20:33:44.569Z,-1.29
2019-01-31T20:36:13.561Z,-1.34
2019-01-31T20:38:42.185Z,-1.29
2019-01-31T20:41:11.139Z,-1.31
2019-01-31T20:43:39.806Z,-1.31
2019-01-31T20:46:08.814Z,-1.30
2019-01-31T20:48:37.806Z,-1.32
2019-01-31T20:51:06.439Z,-1.37
2019-01-31T20:53:35.377Z,-1.25
2019-01-31T20:56:04.020Z,-1.28
2019-01-31T20:58:32.638Z,-1.28
2019-01-31T21:01:01.763Z,-1.35
2019-01-31T21:03:30.280Z,-1.27
2019-01-31T21:05:59.013Z,-1.31
2019-01-31T21:08:27.608Z,-1.27
2019-01-31T21:10:56.248Z,-1.36
2019-01-31T21:13:24.904Z,-1.33
2019-01-31T21:15:53.531Z,-1.40
2019-01-31T21:18:22.417Z,-1.34
2019-01-31T21:20:51.403Z,-1.42
2019-01-31T21:23:20.018Z,-1.35
2019-01-31T21:25:48.622Z,-1.34
2019-01-31T21:28:17.275Z,-1.43
2019-01-31T21:30:46.136Z,-1.55
2019-01-31T21:33:14.744Z,-1.49
2019-01-31T21:35:43.786Z,-1.53
2019-01-31T21:38:12.319Z,-1.45
2019-01-31T21:40:40.931Z,-1.48
2019-01-31T21:43:09.557Z,-1.42
2019-01-31T21:45:38.191Z,-1.58
2019-01-31T21:48:06.829Z,-1.58
2019-01-31T21:50:35.458Z,-1.59
2019-01-31T21:53:04.093Z,-1.55
2019-01-31T21:55:32.728Z,-1.49
2019-01-31T22:00:40.177Z,-1.64
2019-01-31T22:03:08.809Z,-1.71
2019-01-31T22:05:37.755Z,-1.74
2019-01-31T22:08:06.387Z,-1.71
2019-01-31T22:10:35.015Z,-1.78
2019-01-31T22:13:03.628Z,-1.74
2019-01-31T22:15:32.594Z,-1.75
2019-01-31T22:18:01.222Z,-1.75
2019-01-31T22:20:29.839Z,-1.69
2019-01-31T22:22:58.460Z,-1.74
2019-01-31T22:25:27.422Z,-1.76
2019-01-31T22:27:56.416Z,-1.75
2019-01-31T22:33:03.926Z,-1.78
2019-01-31T22:35:32.531Z,-1.75
2019-01-31T22:38:01.154Z,-1.78
2019-01-31T22:40:30.122Z,-1.87
2019-01-31T22:42:58.724Z,-1.86
2019-01-31T22:45:27.649Z,-1.88
2019-01-31T22:47:56.549Z,-1.88
2019-01-31T22:50:25.169Z,-1.83
2019-01-31T22:52:53.814Z,-1.85
2019-01-31T22:55:25.165Z,-1.83
2019-01-31T22:57:54.073Z,-1.90
2019-01-31T23:00:22.711Z,-1.95
2019-01-31T23:02:51.708Z,-1.91
2019-01-31T23:05:20.599Z,-1.92
2019-01-31T23:07:51.646Z,-2.04
2019-01-31T23:10:18.116Z,-1.99
2019-01-31T23:12:46.749Z,-2.03
2019-01-31T23:15:15.355Z,-2.04
2019-01-31T23:17:44.326Z,-2.10
2019-01-31T23:20:12.979Z,-2.04
2019-01-31T23:22:41.904Z,-1.93
2019-01-31T23:25:10.542Z,-1.98
2019-01-31T23:27:39.253Z,-2.00
2019-01-31T23:30:08.264Z,-2.02
2019-01-31T23:32:36.775Z,-2.02
2019-01-31T23:35:05.408Z,-2.07
2019-01-31T23:37:34.029Z,-2.15
2019-01-31T23:40:02.677Z,-2.22
2019-01-31T23:42:31.287Z,-2.12
2019-01-31T23:45:00.339Z,-2.16
2019-01-31T23:47:29.244Z,-2.23
2019-01-31T23:49:57.870Z,-2.30
2019-01-31T23:52:26.506Z,-2.22
2019-01-31T23:54:55.154Z,-2.12
2019-01-31T23:57:24.088Z,-2.06
2019-01-31T23:59:52.719Z,-2.20
